sensor_id;sensor_type;location;lat;lon;timestamp;P1;durP1;ratioP1;P2;durP2;ratioP2
47251;SDS011;32991;51.374;11.586;2023-06-04T00:00:13;4.63;;;2.45;;
47251;SDS011;32991;51.374;11.586;2023-06-04T00:02:40;4.25;;;2.50;;
47251;SDS011;32991;51.374;11.586;2023-06-04T00:05:06;3.55;;;2.53;;
47251;SDS011;32991;51.374;11.586;2023-06-04T00:07:33;3.15;;;2.30;;
47251;SDS011;32991;51.374;11.586;2023-06-04T00:10:00;3.75;;;2.20;;
47251;SDS011;32991;51.374;11.586;2023-06-04T00:12:26;4.38;;;2.20;;
47251;SDS011;32991;51.374;11.586;2023-06-04T00:14:53;3.38;;;2.15;;
47251;SDS011;32991;51.374;11.586;2023-06-04T00:17:19;3.75;;;2.53;;
47251;SDS011;32991;51.374;11.586;2023-06-04T00:19:46;3.10;;;2.25;;
47251;SDS011;32991;51.374;11.586;2023-06-04T00:22:12;6.55;;;2.60;;
47251;SDS011;32991;51.374;11.586;2023-06-04T00:24:39;6.05;;;2.58;;
47251;SDS011;32991;51.374;11.586;2023-06-04T00:27:08;4.43;;;2.40;;
47251;SDS011;32991;51.374;11.586;2023-06-04T00:29:35;5.38;;;2.80;;
47251;SDS011;32991;51.374;11.586;2023-06-04T00:32:02;3.45;;;2.58;;
47251;SDS011;32991;51.374;11.586;2023-06-04T00:34:29;8.00;;;2.70;;
47251;SDS011;32991;51.374;11.586;2023-06-04T00:36:56;4.40;;;2.30;;
47251;SDS011;32991;51.374;11.586;2023-06-04T00:39:23;6.05;;;2.78;;
47251;SDS011;32991;51.374;11.586;2023-06-04T00:41:49;3.53;;;2.42;;
47251;SDS011;32991;51.374;11.586;2023-06-04T00:44:16;6.78;;;2.53;;
47251;SDS011;32991;51.374;11.586;2023-06-04T00:46:43;4.28;;;2.60;;
47251;SDS011;32991;51.374;11.586;2023-06-04T00:49:11;6.07;;;2.88;;
47251;SDS011;32991;51.374;11.586;2023-06-04T00:51:38;4.35;;;2.60;;
47251;SDS011;32991;51.374;11.586;2023-06-04T00:54:06;2.65;;;2.40;;
47251;SDS011;32991;51.374;11.586;2023-06-04T00:56:36;3.47;;;2.58;;
47251;SDS011;32991;51.374;11.586;2023-06-04T00:59:04;5.72;;;2.45;;
47251;SDS011;32991;51.374;11.586;2023-06-04T01:01:49;3.00;;;2.50;;
47251;SDS011;32991;51.374;11.586;2023-06-04T01:04:22;4.93;;;2.80;;
47251;SDS011;32991;51.374;11.586;2023-06-04T01:06:53;3.97;;;2.63;;
47251;SDS011;32991;51.374;11.586;2023-06-04T01:09:24;3.72;;;2.70;;
47251;SDS011;32991;51.374;11.586;2023-06-04T01:11:55;3.92;;;2.47;;
47251;SDS011;32991;51.374;11.586;2023-06-04T01:14:24;6.55;;;2.63;;
47251;SDS011;32991;51.374;11.586;2023-06-04T01:16:55;5.07;;;2.65;;
47251;SDS011;32991;51.374;11.586;2023-06-04T01:19:42;5.28;;;2.83;;
47251;SDS011;32991;51.374;11.586;2023-06-04T01:22:23;6.20;;;2.80;;
47251;SDS011;32991;51.374;11.586;2023-06-04T01:24:59;4.07;;;2.95;;
47251;SDS011;32991;51.374;11.586;2023-06-04T01:27:30;3.97;;;2.65;;
47251;SDS011;32991;51.374;11.586;2023-06-04T01:29:58;6.45;;;2.75;;
47251;SDS011;32991;51.374;11.586;2023-06-04T01:32:26;4.38;;;3.03;;
47251;SDS011;32991;51.374;11.586;2023-06-04T01:34:53;3.95;;;2.85;;
47251;SDS011;32991;51.374;11.586;2023-06-04T01:37:20;4.72;;;3.22;;
47251;SDS011;32991;51.374;11.586;2023-06-04T01:39:47;4.15;;;3.08;;
47251;SDS011;32991;51.374;11.586;2023-06-04T01:42:13;3.95;;;2.90;;
47251;SDS011;32991;51.374;11.586;2023-06-04T01:44:40;7.72;;;2.65;;
47251;SDS011;32991;51.374;11.586;2023-06-04T01:47:07;5.35;;;3.05;;
47251;SDS011;32991;51.374;11.586;2023-06-04T01:49:34;6.18;;;2.88;;
47251;SDS011;32991;51.374;11.586;2023-06-04T01:52:00;4.03;;;2.92;;
47251;SDS011;32991;51.374;11.586;2023-06-04T01:54:27;5.40;;;3.08;;
47251;SDS011;32991;51.374;11.586;2023-06-04T01:56:56;6.50;;;3.63;;
47251;SDS011;32991;51.374;11.586;2023-06-04T01:59:22;5.55;;;3.38;;
47251;SDS011;32991;51.374;11.586;2023-06-04T02:01:49;6.50;;;3.20;;
47251;SDS011;32991;51.374;11.586;2023-06-04T02:04:15;6.13;;;3.22;;
47251;SDS011;32991;51.374;11.586;2023-06-04T02:06:42;5.13;;;3.25;;
47251;SDS011;32991;51.374;11.586;2023-06-04T02:09:09;7.53;;;3.95;;
47251;SDS011;32991;51.374;11.586;2023-06-04T02:11:35;6.35;;;3.65;;
47251;SDS011;32991;51.374;11.586;2023-06-04T02:14:02;3.60;;;3.13;;
47251;SDS011;32991;51.374;11.586;2023-06-04T02:16:28;6.63;;;3.55;;
47251;SDS011;32991;51.374;11.586;2023-06-04T02:18:56;5.18;;;3.35;;
47251;SDS011;32991;51.374;11.586;2023-06-04T02:21:22;7.53;;;3.03;;
47251;SDS011;32991;51.374;11.586;2023-06-04T02:23:49;6.32;;;3.28;;
47251;SDS011;32991;51.374;11.586;2023-06-04T02:26:15;4.55;;;3.17;;
47251;SDS011;32991;51.374;11.586;2023-06-04T02:28:42;7.75;;;3.67;;
47251;SDS011;32991;51.374;11.586;2023-06-04T02:31:09;7.45;;;3.35;;
47251;SDS011;32991;51.374;11.586;2023-06-04T02:33:35;7.15;;;3.25;;
47251;SDS011;32991;51.374;11.586;2023-06-04T02:36:02;4.18;;;3.38;;
47251;SDS011;32991;51.374;11.586;2023-06-04T02:38:28;7.57;;;3.25;;
47251;SDS011;32991;51.374;11.586;2023-06-04T02:40:55;8.27;;;3.75;;
47251;SDS011;32991;51.374;11.586;2023-06-04T02:43:21;5.90;;;3.30;;
47251;SDS011;32991;51.374;11.586;2023-06-04T02:45:48;4.78;;;3.40;;
47251;SDS011;32991;51.374;11.586;2023-06-04T02:48:15;8.32;;;3.35;;
47251;SDS011;32991;51.374;11.586;2023-06-04T02:50:42;6.90;;;3.22;;
47251;SDS011;32991;51.374;11.586;2023-06-04T02:53:09;6.45;;;3.05;;
47251;SDS011;32991;51.374;11.586;2023-06-04T02:55:36;11.23;;;4.30;;
47251;SDS011;32991;51.374;11.586;2023-06-04T02:58:02;7.32;;;3.00;;
47251;SDS011;32991;51.374;11.586;2023-06-04T03:00:29;7.25;;;3.65;;
47251;SDS011;32991;51.374;11.586;2023-06-04T03:02:55;7.72;;;3.40;;
47251;SDS011;32991;51.374;11.586;2023-06-04T03:05:28;5.93;;;3.28;;
47251;SDS011;32991;51.374;11.586;2023-06-04T03:07:57;6.50;;;3.20;;
47251;SDS011;32991;51.374;11.586;2023-06-04T03:10:24;5.50;;;2.85;;
47251;SDS011;32991;51.374;11.586;2023-06-04T03:12:52;6.13;;;3.25;;
47251;SDS011;32991;51.374;11.586;2023-06-04T03:15:19;3.45;;;2.80;;
47251;SDS011;32991;51.374;11.586;2023-06-04T03:17:46;8.50;;;3.17;;
47251;SDS011;32991;51.374;11.586;2023-06-04T03:20:13;4.47;;;3.13;;
47251;SDS011;32991;51.374;11.586;2023-06-04T03:22:39;5.53;;;3.20;;
47251;SDS011;32991;51.374;11.586;2023-06-04T03:25:06;6.90;;;2.75;;
47251;SDS011;32991;51.374;11.586;2023-06-04T03:27:33;4.22;;;3.20;;
47251;SDS011;32991;51.374;11.586;2023-06-04T03:30:00;5.55;;;3.65;;
47251;SDS011;32991;51.374;11.586;2023-06-04T03:32:33;13.77;;;3.40;;
47251;SDS011;32991;51.374;11.586;2023-06-04T03:35:00;10.60;;;3.13;;
47251;SDS011;32991;51.374;11.586;2023-06-04T03:37:27;6.15;;;3.15;;
47251;SDS011;32991;51.374;11.586;2023-06-04T03:39:54;5.43;;;3.58;;
47251;SDS011;32991;51.374;11.586;2023-06-04T03:42:20;7.18;;;3.33;;
47251;SDS011;32991;51.374;11.586;2023-06-04T03:44:47;6.07;;;3.30;;
47251;SDS011;32991;51.374;11.586;2023-06-04T03:47:14;5.68;;;3.70;;
47251;SDS011;32991;51.374;11.586;2023-06-04T03:49:41;8.30;;;4.13;;
47251;SDS011;32991;51.374;11.586;2023-06-04T03:52:08;6.28;;;3.30;;
47251;SDS011;32991;51.374;11.586;2023-06-04T03:54:36;5.82;;;3.47;;
47251;SDS011;32991;51.374;11.586;2023-06-04T03:57:03;7.30;;;3.35;;
47251;SDS011;32991;51.374;11.586;2023-06-04T03:59:30;7.18;;;3.33;;
47251;SDS011;32991;51.374;11.586;2023-06-04T04:01:57;6.13;;;3.20;;
47251;SDS011;32991;51.374;11.586;2023-06-04T04:04:24;5.18;;;3.08;;
47251;SDS011;32991;51.374;11.586;2023-06-04T04:06:51;6.40;;;3.55;;
47251;SDS011;32991;51.374;11.586;2023-06-04T04:09:19;5.68;;;3.03;;
47251;SDS011;32991;51.374;11.586;2023-06-04T04:11:45;5.40;;;3.45;;
47251;SDS011;32991;51.374;11.586;2023-06-04T04:14:13;4.50;;;3.45;;
47251;SDS011;32991;51.374;11.586;2023-06-04T04:16:40;8.15;;;3.95;;
47251;SDS011;32991;51.374;11.586;2023-06-04T04:19:07;6.53;;;3.63;;
47251;SDS011;32991;51.374;11.586;2023-06-04T04:21:35;6.85;;;3.80;;
47251;SDS011;32991;51.374;11.586;2023-06-04T04:24:03;7.93;;;3.35;;
47251;SDS011;32991;51.374;11.586;2023-06-04T04:26:31;4.75;;;3.60;;
47251;SDS011;32991;51.374;11.586;2023-06-04T04:28:58;6.97;;;3.58;;
47251;SDS011;32991;51.374;11.586;2023-06-04T04:31:29;6.88;;;3.38;;
47251;SDS011;32991;51.374;11.586;2023-06-04T04:33:57;6.75;;;3.17;;
47251;SDS011;32991;51.374;11.586;2023-06-04T04:36:23;6.72;;;3.20;;
47251;SDS011;32991;51.374;11.586;2023-06-04T04:38:51;7.72;;;3.50;;
47251;SDS011;32991;51.374;11.586;2023-06-04T04:41:24;10.10;;;3.33;;
47251;SDS011;32991;51.374;11.586;2023-06-04T04:43:53;8.10;;;3.28;;
47251;SDS011;32991;51.374;11.586;2023-06-04T04:46:27;4.45;;;2.90;;
47251;SDS011;32991;51.374;11.586;2023-06-04T04:48:53;8.55;;;3.45;;
47251;SDS011;32991;51.374;11.586;2023-06-04T04:51:21;5.22;;;3.30;;
47251;SDS011;32991;51.374;11.586;2023-06-04T04:53:49;3.72;;;2.92;;
47251;SDS011;32991;51.374;11.586;2023-06-04T04:56:16;7.15;;;3.38;;
47251;SDS011;32991;51.374;11.586;2023-06-04T04:58:47;3.50;;;2.70;;
47251;SDS011;32991;51.374;11.586;2023-06-04T05:01:13;4.35;;;2.92;;
47251;SDS011;32991;51.374;11.586;2023-06-04T05:03:41;5.50;;;2.85;;
47251;SDS011;32991;51.374;11.586;2023-06-04T05:06:10;7.18;;;3.10;;
47251;SDS011;32991;51.374;11.586;2023-06-04T05:08:37;4.28;;;2.80;;
47251;SDS011;32991;51.374;11.586;2023-06-04T05:11:04;5.20;;;2.65;;
47251;SDS011;32991;51.374;11.586;2023-06-04T05:13:31;4.88;;;3.22;;
47251;SDS011;32991;51.374;11.586;2023-06-04T05:16:02;11.88;;;3.17;;
47251;SDS011;32991;51.374;11.586;2023-06-04T05:18:38;6.30;;;2.55;;
47251;SDS011;32991;51.374;11.586;2023-06-04T05:21:14;4.95;;;2.75;;
47251;SDS011;32991;51.374;11.586;2023-06-04T05:23:46;3.25;;;2.50;;
47251;SDS011;32991;51.374;11.586;2023-06-04T05:26:16;4.95;;;2.90;;
47251;SDS011;32991;51.374;11.586;2023-06-04T05:28:42;3.55;;;2.42;;
47251;SDS011;32991;51.374;11.586;2023-06-04T05:31:12;5.57;;;2.58;;
47251;SDS011;32991;51.374;11.586;2023-06-04T05:33:39;5.43;;;2.70;;
47251;SDS011;32991;51.374;11.586;2023-06-04T05:36:11;3.03;;;2.17;;
47251;SDS011;32991;51.374;11.586;2023-06-04T05:38:44;3.58;;;2.28;;
47251;SDS011;32991;51.374;11.586;2023-06-04T05:41:14;3.28;;;2.03;;
47251;SDS011;32991;51.374;11.586;2023-06-04T05:43:41;6.72;;;2.40;;
47251;SDS011;32991;51.374;11.586;2023-06-04T05:46:12;2.50;;;2.30;;
47251;SDS011;32991;51.374;11.586;2023-06-04T05:48:40;3.70;;;2.20;;
47251;SDS011;32991;51.374;11.586;2023-06-04T05:51:07;6.40;;;2.40;;
47251;SDS011;32991;51.374;11.586;2023-06-04T05:53:36;2.90;;;2.30;;
47251;SDS011;32991;51.374;11.586;2023-06-04T05:56:03;6.72;;;2.30;;
47251;SDS011;32991;51.374;11.586;2023-06-04T05:58:32;6.35;;;2.42;;
47251;SDS011;32991;51.374;11.586;2023-06-04T06:00:59;3.15;;;2.03;;
47251;SDS011;32991;51.374;11.586;2023-06-04T06:03:26;8.27;;;2.05;;
47251;SDS011;32991;51.374;11.586;2023-06-04T06:05:55;2.67;;;1.83;;
47251;SDS011;32991;51.374;11.586;2023-06-04T06:08:23;2.50;;;1.70;;
47251;SDS011;32991;51.374;11.586;2023-06-04T06:10:50;2.63;;;2.10;;
47251;SDS011;32991;51.374;11.586;2023-06-04T06:13:17;3.08;;;1.90;;
47251;SDS011;32991;51.374;11.586;2023-06-04T06:15:43;5.10;;;2.03;;
47251;SDS011;32991;51.374;11.586;2023-06-04T06:18:12;4.03;;;2.13;;
47251;SDS011;32991;51.374;11.586;2023-06-04T06:20:38;4.40;;;1.95;;
47251;SDS011;32991;51.374;11.586;2023-06-04T06:23:05;5.05;;;2.10;;
47251;SDS011;32991;51.374;11.586;2023-06-04T06:25:35;5.38;;;2.10;;
47251;SDS011;32991;51.374;11.586;2023-06-04T06:28:06;6.32;;;2.13;;
47251;SDS011;32991;51.374;11.586;2023-06-04T06:30:35;6.15;;;2.00;;
47251;SDS011;32991;51.374;11.586;2023-06-04T06:33:02;5.47;;;1.90;;
47251;SDS011;32991;51.374;11.586;2023-06-04T06:35:28;2.75;;;1.67;;
47251;SDS011;32991;51.374;11.586;2023-06-04T06:37:55;2.58;;;1.80;;
47251;SDS011;32991;51.374;11.586;2023-06-04T06:40:21;3.42;;;1.60;;
47251;SDS011;32991;51.374;11.586;2023-06-04T06:42:48;9.27;;;1.95;;
47251;SDS011;32991;51.374;11.586;2023-06-04T06:45:19;2.83;;;1.50;;
47251;SDS011;32991;51.374;11.586;2023-06-04T06:47:46;2.15;;;1.65;;
47251;SDS011;32991;51.374;11.586;2023-06-04T06:50:12;2.35;;;1.50;;
47251;SDS011;32991;51.374;11.586;2023-06-04T06:52:39;3.63;;;1.80;;
47251;SDS011;32991;51.374;11.586;2023-06-04T06:55:06;2.65;;;1.67;;
47251;SDS011;32991;51.374;11.586;2023-06-04T06:57:32;2.25;;;2.00;;
47251;SDS011;32991;51.374;11.586;2023-06-04T06:59:59;7.18;;;2.00;;
47251;SDS011;32991;51.374;11.586;2023-06-04T07:02:26;3.13;;;1.60;;
47251;SDS011;32991;51.374;11.586;2023-06-04T07:04:53;2.00;;;1.58;;
47251;SDS011;32991;51.374;11.586;2023-06-04T07:07:20;7.25;;;1.70;;
47251;SDS011;32991;51.374;11.586;2023-06-04T07:09:46;3.90;;;1.80;;
47251;SDS011;32991;51.374;11.586;2023-06-04T07:12:13;4.50;;;1.70;;
47251;SDS011;32991;51.374;11.586;2023-06-04T07:14:40;3.95;;;1.50;;
47251;SDS011;32991;51.374;11.586;2023-06-04T07:17:06;3.47;;;1.70;;
47251;SDS011;32991;51.374;11.586;2023-06-04T07:19:33;2.58;;;1.77;;
47251;SDS011;32991;51.374;11.586;2023-06-04T07:22:00;4.43;;;1.70;;
47251;SDS011;32991;51.374;11.586;2023-06-04T07:24:27;4.90;;;1.92;;
47251;SDS011;32991;51.374;11.586;2023-06-04T07:26:53;3.28;;;1.58;;
47251;SDS011;32991;51.374;11.586;2023-06-04T07:29:20;2.78;;;1.63;;
47251;SDS011;32991;51.374;11.586;2023-06-04T07:31:46;2.13;;;1.63;;
47251;SDS011;32991;51.374;11.586;2023-06-04T07:34:13;5.93;;;1.70;;
47251;SDS011;32991;51.374;11.586;2023-06-04T07:36:40;3.30;;;1.73;;
47251;SDS011;32991;51.374;11.586;2023-06-04T07:39:06;4.18;;;1.52;;
47251;SDS011;32991;51.374;11.586;2023-06-04T07:41:33;2.95;;;1.48;;
47251;SDS011;32991;51.374;11.586;2023-06-04T07:44:00;2.45;;;1.60;;
47251;SDS011;32991;51.374;11.586;2023-06-04T07:46:27;3.38;;;1.40;;
47251;SDS011;32991;51.374;11.586;2023-06-04T07:48:53;4.28;;;1.60;;
47251;SDS011;32991;51.374;11.586;2023-06-04T07:51:20;5.07;;;1.63;;
47251;SDS011;32991;51.374;11.586;2023-06-04T07:53:46;1.40;;;1.30;;
47251;SDS011;32991;51.374;11.586;2023-06-04T07:56:13;3.60;;;1.75;;
47251;SDS011;32991;51.374;11.586;2023-06-04T07:58:40;2.50;;;1.30;;
47251;SDS011;32991;51.374;11.586;2023-06-04T08:01:06;3.88;;;1.35;;
47251;SDS011;32991;51.374;11.586;2023-06-04T08:03:34;2.22;;;1.50;;
47251;SDS011;32991;51.374;11.586;2023-06-04T08:06:00;3.03;;;1.42;;
47251;SDS011;32991;51.374;11.586;2023-06-04T08:08:29;3.08;;;1.10;;
47251;SDS011;32991;51.374;11.586;2023-06-04T08:10:57;1.30;;;1.20;;
47251;SDS011;32991;51.374;11.586;2023-06-04T08:13:24;3.97;;;1.27;;
47251;SDS011;32991;51.374;11.586;2023-06-04T08:15:50;1.60;;;1.20;;
47251;SDS011;32991;51.374;11.586;2023-06-04T08:18:17;2.22;;;1.17;;
47251;SDS011;32991;51.374;11.586;2023-06-04T08:20:44;2.78;;;1.20;;
47251;SDS011;32991;51.374;11.586;2023-06-04T08:23:10;0.93;;;0.77;;
47251;SDS011;32991;51.374;11.586;2023-06-04T08:25:37;3.60;;;1.15;;
47251;SDS011;32991;51.374;11.586;2023-06-04T08:28:03;1.42;;;0.90;;
47251;SDS011;32991;51.374;11.586;2023-06-04T08:30:30;6.82;;;1.23;;
47251;SDS011;32991;51.374;11.586;2023-06-04T08:32:56;2.03;;;0.88;;
47251;SDS011;32991;51.374;11.586;2023-06-04T08:35:23;2.70;;;1.10;;
47251;SDS011;32991;51.374;11.586;2023-06-04T08:37:50;2.70;;;0.98;;
47251;SDS011;32991;51.374;11.586;2023-06-04T08:40:16;3.72;;;1.60;;
47251;SDS011;32991;51.374;11.586;2023-06-04T08:42:43;2.25;;;1.20;;
47251;SDS011;32991;51.374;11.586;2023-06-04T08:45:13;2.92;;;1.23;;
47251;SDS011;32991;51.374;11.586;2023-06-04T08:47:48;3.03;;;0.98;;
47251;SDS011;32991;51.374;11.586;2023-06-04T08:50:16;4.15;;;1.45;;
47251;SDS011;32991;51.374;11.586;2023-06-04T08:52:44;2.50;;;1.20;;
47251;SDS011;32991;51.374;11.586;2023-06-04T08:55:11;5.78;;;1.30;;
47251;SDS011;32991;51.374;11.586;2023-06-04T08:57:40;3.47;;;0.90;;
47251;SDS011;32991;51.374;11.586;2023-06-04T09:00:07;1.98;;;1.20;;
47251;SDS011;32991;51.374;11.586;2023-06-04T09:02:37;3.03;;;1.10;;
47251;SDS011;32991;51.374;11.586;2023-06-04T09:05:05;1.77;;;1.00;;
47251;SDS011;32991;51.374;11.586;2023-06-04T09:07:36;1.95;;;0.98;;
47251;SDS011;32991;51.374;11.586;2023-06-04T09:10:06;2.55;;;1.05;;
47251;SDS011;32991;51.374;11.586;2023-06-04T09:12:40;1.73;;;0.98;;
47251;SDS011;32991;51.374;11.586;2023-06-04T09:15:09;1.25;;;1.02;;
47251;SDS011;32991;51.374;11.586;2023-06-04T09:17:37;1.83;;;1.15;;
47251;SDS011;32991;51.374;11.586;2023-06-04T09:20:04;2.35;;;1.05;;
47251;SDS011;32991;51.374;11.586;2023-06-04T09:22:35;2.78;;;1.10;;
47251;SDS011;32991;51.374;11.586;2023-06-04T09:25:06;1.42;;;1.00;;
47251;SDS011;32991;51.374;11.586;2023-06-04T09:27:39;3.50;;;1.08;;
47251;SDS011;32991;51.374;11.586;2023-06-04T09:30:06;2.05;;;1.00;;
47251;SDS011;32991;51.374;11.586;2023-06-04T09:32:35;2.60;;;0.90;;
47251;SDS011;32991;51.374;11.586;2023-06-04T09:35:09;1.77;;;1.00;;
47251;SDS011;32991;51.374;11.586;2023-06-04T09:37:42;2.00;;;1.00;;
47251;SDS011;32991;51.374;11.586;2023-06-04T09:40:17;5.63;;;1.40;;
47251;SDS011;32991;51.374;11.586;2023-06-04T09:42:44;10.40;;;1.40;;
47251;SDS011;32991;51.374;11.586;2023-06-04T09:45:12;2.15;;;1.02;;
47251;SDS011;32991;51.374;11.586;2023-06-04T09:47:39;1.15;;;0.90;;
47251;SDS011;32991;51.374;11.586;2023-06-04T09:50:12;1.40;;;0.90;;
47251;SDS011;32991;51.374;11.586;2023-06-04T09:52:39;2.78;;;0.90;;
47251;SDS011;32991;51.374;11.586;2023-06-04T09:55:15;2.75;;;0.90;;
47251;SDS011;32991;51.374;11.586;2023-06-04T09:57:49;1.17;;;0.90;;
47251;SDS011;32991;51.374;11.586;2023-06-04T10:00:17;1.75;;;1.10;;
47251;SDS011;32991;51.374;11.586;2023-06-04T10:02:44;3.70;;;0.98;;
47251;SDS011;32991;51.374;11.586;2023-06-04T10:05:14;2.90;;;0.77;;
47251;SDS011;32991;51.374;11.586;2023-06-04T10:07:42;3.50;;;1.10;;
47251;SDS011;32991;51.374;11.586;2023-06-04T10:10:11;3.53;;;1.27;;
47251;SDS011;32991;51.374;11.586;2023-06-04T10:12:41;6.22;;;0.90;;
47251;SDS011;32991;51.374;11.586;2023-06-04T10:15:11;1.83;;;1.10;;
47251;SDS011;32991;51.374;11.586;2023-06-04T10:17:39;1.67;;;0.90;;
47251;SDS011;32991;51.374;11.586;2023-06-04T10:20:08;1.35;;;0.90;;
47251;SDS011;32991;51.374;11.586;2023-06-04T10:22:37;6.82;;;1.05;;
47251;SDS011;32991;51.374;11.586;2023-06-04T10:25:04;1.02;;;0.93;;
47251;SDS011;32991;51.374;11.586;2023-06-04T10:27:32;1.92;;;1.15;;
47251;SDS011;32991;51.374;11.586;2023-06-04T10:30:01;1.60;;;0.80;;
47251;SDS011;32991;51.374;11.586;2023-06-04T10:32:29;4.30;;;1.23;;
47251;SDS011;32991;51.374;11.586;2023-06-04T10:34:56;2.15;;;1.00;;
47251;SDS011;32991;51.374;11.586;2023-06-04T10:37:25;1.00;;;0.90;;
47251;SDS011;32991;51.374;11.586;2023-06-04T10:39:52;1.85;;;0.90;;
47251;SDS011;32991;51.374;11.586;2023-06-04T10:42:20;1.35;;;1.00;;
47251;SDS011;32991;51.374;11.586;2023-06-04T10:44:49;1.17;;;1.08;;
47251;SDS011;32991;51.374;11.586;2023-06-04T10:47:24;3.08;;;1.10;;
47251;SDS011;32991;51.374;11.586;2023-06-04T10:49:55;2.05;;;1.20;;
47251;SDS011;32991;51.374;11.586;2023-06-04T10:52:21;3.50;;;1.25;;
47251;SDS011;32991;51.374;11.586;2023-06-04T10:54:48;1.98;;;1.58;;
47251;SDS011;32991;51.374;11.586;2023-06-04T10:57:15;2.00;;;1.10;;
47251;SDS011;32991;51.374;11.586;2023-06-04T10:59:59;2.33;;;1.08;;
47251;SDS011;32991;51.374;11.586;2023-06-04T11:02:27;1.00;;;0.90;;
47251;SDS011;32991;51.374;11.586;2023-06-04T11:05:00;1.02;;;0.80;;
47251;SDS011;32991;51.374;11.586;2023-06-04T11:07:42;2.63;;;1.27;;
47251;SDS011;32991;51.374;11.586;2023-06-04T11:10:13;3.03;;;1.08;;
47251;SDS011;32991;51.374;11.586;2023-06-04T11:12:45;2.00;;;0.95;;
47251;SDS011;32991;51.374;11.586;2023-06-04T11:15:12;1.52;;;1.10;;
47251;SDS011;32991;51.374;11.586;2023-06-04T11:17:55;1.33;;;0.80;;
47251;SDS011;32991;51.374;11.586;2023-06-04T11:20:24;3.90;;;1.13;;
47251;SDS011;32991;51.374;11.586;2023-06-04T11:22:54;1.77;;;1.30;;
47251;SDS011;32991;51.374;11.586;2023-06-04T11:25:25;1.70;;;0.95;;
47251;SDS011;32991;51.374;11.586;2023-06-04T11:27:53;1.10;;;0.98;;
47251;SDS011;32991;51.374;11.586;2023-06-04T11:30:20;2.03;;;1.00;;
47251;SDS011;32991;51.374;11.586;2023-06-04T11:32:47;1.90;;;1.10;;
47251;SDS011;32991;51.374;11.586;2023-06-04T11:35:14;3.72;;;1.20;;
47251;SDS011;32991;51.374;11.586;2023-06-04T11:37:42;1.40;;;1.10;;
47251;SDS011;32991;51.374;11.586;2023-06-04T11:40:19;3.55;;;1.10;;
47251;SDS011;32991;51.374;11.586;2023-06-04T11:42:46;3.42;;;1.08;;
47251;SDS011;32991;51.374;11.586;2023-06-04T11:45:13;3.72;;;1.10;;
47251;SDS011;32991;51.374;11.586;2023-06-04T11:47:44;1.52;;;0.90;;
47251;SDS011;32991;51.374;11.586;2023-06-04T11:50:11;2.10;;;1.20;;
47251;SDS011;32991;51.374;11.586;2023-06-04T11:52:38;1.85;;;1.10;;
47251;SDS011;32991;51.374;11.586;2023-06-04T11:55:07;1.65;;;0.88;;
47251;SDS011;32991;51.374;11.586;2023-06-04T11:57:34;0.93;;;0.85;;
47251;SDS011;32991;51.374;11.586;2023-06-04T12:00:01;2.58;;;1.20;;
47251;SDS011;32991;51.374;11.586;2023-06-04T12:02:29;1.83;;;1.00;;
47251;SDS011;32991;51.374;11.586;2023-06-04T12:04:56;1.95;;;1.10;;
47251;SDS011;32991;51.374;11.586;2023-06-04T12:07:23;3.05;;;0.90;;
47251;SDS011;32991;51.374;11.586;2023-06-04T12:09:50;3.65;;;1.20;;
47251;SDS011;32991;51.374;11.586;2023-06-04T12:12:21;1.75;;;1.13;;
47251;SDS011;32991;51.374;11.586;2023-06-04T12:14:55;2.97;;;1.10;;
47251;SDS011;32991;51.374;11.586;2023-06-04T12:17:22;2.00;;;1.08;;
47251;SDS011;32991;51.374;11.586;2023-06-04T12:19:49;1.58;;;1.10;;
47251;SDS011;32991;51.374;11.586;2023-06-04T12:22:17;0.90;;;0.90;;
47251;SDS011;32991;51.374;11.586;2023-06-04T12:24:54;2.28;;;1.10;;
47251;SDS011;32991;51.374;11.586;2023-06-04T12:27:22;2.85;;;0.90;;
47251;SDS011;32991;51.374;11.586;2023-06-04T12:29:56;1.58;;;1.00;;
47251;SDS011;32991;51.374;11.586;2023-06-04T12:32:26;5.88;;;1.52;;
47251;SDS011;32991;51.374;11.586;2023-06-04T12:34:54;2.67;;;1.30;;
47251;SDS011;32991;51.374;11.586;2023-06-04T12:37:24;2.25;;;1.20;;
47251;SDS011;32991;51.374;11.586;2023-06-04T12:39:54;3.13;;;1.13;;
47251;SDS011;32991;51.374;11.586;2023-06-04T12:42:21;1.85;;;0.95;;
47251;SDS011;32991;51.374;11.586;2023-06-04T12:44:47;3.13;;;0.90;;
47251;SDS011;32991;51.374;11.586;2023-06-04T12:47:14;1.50;;;1.25;;
47251;SDS011;32991;51.374;11.586;2023-06-04T12:49:43;1.65;;;0.98;;
47251;SDS011;32991;51.374;11.586;2023-06-04T12:52:10;1.25;;;1.00;;
47251;SDS011;32991;51.374;11.586;2023-06-04T12:54:37;2.70;;;1.05;;
47251;SDS011;32991;51.374;11.586;2023-06-04T12:57:03;1.80;;;1.20;;
47251;SDS011;32991;51.374;11.586;2023-06-04T12:59:30;1.23;;;0.93;;
47251;SDS011;32991;51.374;11.586;2023-06-04T13:01:57;1.23;;;0.90;;
47251;SDS011;32991;51.374;11.586;2023-06-04T13:04:23;2.88;;;1.50;;
47251;SDS011;32991;51.374;11.586;2023-06-04T13:06:50;4.45;;;1.23;;
47251;SDS011;32991;51.374;11.586;2023-06-04T13:09:19;2.45;;;1.30;;
47251;SDS011;32991;51.374;11.586;2023-06-04T13:11:46;7.70;;;1.20;;
47251;SDS011;32991;51.374;11.586;2023-06-04T13:14:13;1.40;;;1.30;;
47251;SDS011;32991;51.374;11.586;2023-06-04T13:16:40;1.92;;;1.10;;
47251;SDS011;32991;51.374;11.586;2023-06-04T13:19:07;1.80;;;1.10;;
47251;SDS011;32991;51.374;11.586;2023-06-04T13:21:34;2.20;;;1.30;;
47251;SDS011;32991;51.374;11.586;2023-06-04T13:24:01;1.17;;;1.08;;
47251;SDS011;32991;51.374;11.586;2023-06-04T13:26:28;2.00;;;1.35;;
47251;SDS011;32991;51.374;11.586;2023-06-04T13:28:55;2.30;;;1.20;;
47251;SDS011;32991;51.374;11.586;2023-06-04T13:31:21;3.92;;;1.20;;
47251;SDS011;32991;51.374;11.586;2023-06-04T13:33:48;1.85;;;1.20;;
47251;SDS011;32991;51.374;11.586;2023-06-04T13:36:15;1.10;;;0.85;;
47251;SDS011;32991;51.374;11.586;2023-06-04T13:38:41;2.58;;;1.15;;
47251;SDS011;32991;51.374;11.586;2023-06-04T13:41:09;2.05;;;1.00;;
47251;SDS011;32991;51.374;11.586;2023-06-04T13:43:36;2.65;;;1.52;;
47251;SDS011;32991;51.374;11.586;2023-06-04T13:46:03;5.28;;;1.30;;
47251;SDS011;32991;51.374;11.586;2023-06-04T13:48:30;0.95;;;0.93;;
47251;SDS011;32991;51.374;11.586;2023-06-04T13:50:57;1.83;;;1.00;;
47251;SDS011;32991;51.374;11.586;2023-06-04T13:53:23;3.42;;;1.10;;
47251;SDS011;32991;51.374;11.586;2023-06-04T13:55:50;2.05;;;1.30;;
47251;SDS011;32991;51.374;11.586;2023-06-04T13:58:24;1.70;;;1.13;;
47251;SDS011;32991;51.374;11.586;2023-06-04T14:00:51;2.78;;;1.33;;
47251;SDS011;32991;51.374;11.586;2023-06-04T14:03:18;1.73;;;1.10;;
47251;SDS011;32991;51.374;11.586;2023-06-04T14:05:45;2.45;;;1.10;;
47251;SDS011;32991;51.374;11.586;2023-06-04T14:08:11;1.77;;;1.00;;
47251;SDS011;32991;51.374;11.586;2023-06-04T14:10:38;1.65;;;1.27;;
47251;SDS011;32991;51.374;11.586;2023-06-04T14:13:07;1.23;;;1.02;;
47251;SDS011;32991;51.374;11.586;2023-06-04T14:15:34;2.30;;;1.48;;
47251;SDS011;32991;51.374;11.586;2023-06-04T14:18:01;2.55;;;1.27;;
47251;SDS011;32991;51.374;11.586;2023-06-04T14:20:28;1.73;;;1.13;;
47251;SDS011;32991;51.374;11.586;2023-06-04T14:22:54;1.73;;;1.10;;
47251;SDS011;32991;51.374;11.586;2023-06-04T14:25:21;1.20;;;1.10;;
47251;SDS011;32991;51.374;11.586;2023-06-04T14:27:48;2.90;;;1.30;;
47251;SDS011;32991;51.374;11.586;2023-06-04T14:30:16;1.15;;;0.95;;
47251;SDS011;32991;51.374;11.586;2023-06-04T14:32:43;3.65;;;1.15;;
47251;SDS011;32991;51.374;11.586;2023-06-04T14:35:09;6.68;;;1.30;;
47251;SDS011;32991;51.374;11.586;2023-06-04T14:37:36;1.45;;;1.10;;